sensor_id;sensor_type;location;lat;lon;timestamp;pressure;altitude;pressure_sealevel;temperature;humidity
76460;BME280;65299;46.084;18.762;2023-07-22T00:01:47;100212.66;;;20.71;85.07
76460;BME280;65299;46.084;18.762;2023-07-22T00:04:48;100210.63;;;20.67;85.66
76460;BME280;65299;46.084;18.762;2023-07-22T00:07:49;100201.88;;;20.71;85.61
76460;BME280;65299;46.084;18.762;2023-07-22T00:10:50;100193.66;;;20.67;85.68
76460;BME280;65299;46.084;18.762;2023-07-22T00:13:50;100203.91;;;20.74;85.72
76460;BME280;65299;46.084;18.762;2023-07-22T00:16:52;100215.38;;;20.71;85.37
76460;BME280;65299;46.084;18.762;2023-07-22T00:19:52;100234.56;;;20.69;85.76
76460;BME280;65299;46.084;18.762;2023-07-22T00:22:52;100260.34;;;20.79;85.18
76460;BME280;65299;46.084;18.762;2023-07-22T00:25:53;100279.69;;;20.81;85.64
76460;BME280;65299;46.084;18.762;2023-07-22T00:28:53;100298.69;;;20.84;84.99
76460;BME280;65299;46.084;18.762;2023-07-22T00:31:54;100281.19;;;20.90;84.42
76460;BME280;65299;46.084;18.762;2023-07-22T00:34:54;100277.03;;;20.93;85.01
76460;BME280;65299;46.084;18.762;2023-07-22T00:37:54;100273.59;;;21.25;84.45
76460;BME280;65299;46.084;18.762;2023-07-22T00:40:56;100275.31;;;21.41;83.76
76460;BME280;65299;46.084;18.762;2023-07-22T00:44:04;100284.38;;;21.25;84.21
76460;BME280;65299;46.084;18.762;2023-07-22T00:47:05;100281.59;;;21.33;83.57
76460;BME280;65299;46.084;18.762;2023-07-22T00:50:07;100280.72;;;21.41;82.97
76460;BME280;65299;46.084;18.762;2023-07-22T00:53:07;100286.56;;;21.43;83.02
76460;BME280;65299;46.084;18.762;2023-07-22T00:56:08;100282.38;;;21.46;82.65
76460;BME280;65299;46.084;18.762;2023-07-22T00:59:09;100284.63;;;21.44;82.07
76460;BME280;65299;46.084;18.762;2023-07-22T01:02:09;100284.78;;;21.60;82.39
76460;BME280;65299;46.084;18.762;2023-07-22T01:05:11;100276.22;;;21.45;83.79
76460;BME280;65299;46.084;18.762;2023-07-22T01:08:12;100265.78;;;21.68;83.08
76460;BME280;65299;46.084;18.762;2023-07-22T01:11:13;100264.88;;;21.64;81.58
76460;BME280;65299;46.084;18.762;2023-07-22T01:14:14;100271.75;;;21.17;83.03
76460;BME280;65299;46.084;18.762;2023-07-22T01:17:14;100263.56;;;21.25;82.81
76460;BME280;65299;46.084;18.762;2023-07-22T01:20:15;100262.00;;;21.36;83.27
76460;BME280;65299;46.084;18.762;2023-07-22T01:23:16;100267.72;;;21.23;83.83
76460;BME280;65299;46.084;18.762;2023-07-22T01:26:17;100274.84;;;21.27;85.01
76460;BME280;65299;46.084;18.762;2023-07-22T01:29:17;100287.88;;;21.25;84.74
76460;BME280;65299;46.084;18.762;2023-07-22T01:32:18;100296.88;;;21.29;84.39
76460;BME280;65299;46.084;18.762;2023-07-22T01:35:20;100312.03;;;21.22;84.96
76460;BME280;65299;46.084;18.762;2023-07-22T01:38:21;100313.25;;;21.12;84.40
76460;BME280;65299;46.084;18.762;2023-07-22T01:41:21;100313.50;;;20.99;85.81
76460;BME280;65299;46.084;18.762;2023-07-22T01:44:22;100325.25;;;21.03;84.85
76460;BME280;65299;46.084;18.762;2023-07-22T01:47:23;100324.56;;;21.06;84.51
76460;BME280;65299;46.084;18.762;2023-07-22T01:50:23;100308.41;;;21.18;84.62
76460;BME280;65299;46.084;18.762;2023-07-22T01:53:23;100300.47;;;21.21;84.74
76460;BME280;65299;46.084;18.762;2023-07-22T01:56:24;100296.47;;;21.07;85.00
76460;BME280;65299;46.084;18.762;2023-07-22T01:59:28;100300.31;;;20.97;84.65
76460;BME280;65299;46.084;18.762;2023-07-22T02:02:28;100293.44;;;21.08;84.53
76460;BME280;65299;46.084;18.762;2023-07-22T02:05:28;100298.41;;;21.18;83.96
76460;BME280;65299;46.084;18.762;2023-07-22T02:08:31;100311.94;;;21.30;83.22
76460;BME280;65299;46.084;18.762;2023-07-22T02:11:31;100322.16;;;21.25;83.91
76460;BME280;65299;46.084;18.762;2023-07-22T02:14:32;100320.03;;;21.30;83.62
76460;BME280;65299;46.084;18.762;2023-07-22T02:17:32;100317.81;;;21.32;84.01
76460;BME280;65299;46.084;18.762;2023-07-22T02:20:34;100316.53;;;21.30;83.85
76460;BME280;65299;46.084;18.762;2023-07-22T02:23:34;100319.56;;;21.16;85.22
76460;BME280;65299;46.084;18.762;2023-07-22T02:26:34;100309.63;;;21.08;85.67
76460;BME280;65299;46.084;18.762;2023-07-22T02:29:35;100316.81;;;21.04;85.74
76460;BME280;65299;46.084;18.762;2023-07-22T02:32:39;100310.81;;;20.99;86.13
76460;BME280;65299;46.084;18.762;2023-07-22T02:35:43;100311.50;;;20.87;86.06
76460;BME280;65299;46.084;18.762;2023-07-22T02:38:44;100310.34;;;20.97;85.86
76460;BME280;65299;46.084;18.762;2023-07-22T02:41:44;100325.88;;;20.79;86.44
76460;BME280;65299;46.084;18.762;2023-07-22T02:44:45;100332.50;;;20.82;86.52
76460;BME280;65299;46.084;18.762;2023-07-22T02:47:45;100325.25;;;21.03;85.24
76460;BME280;65299;46.084;18.762;2023-07-22T02:50:46;100323.00;;;21.05;84.36
76460;BME280;65299;46.084;18.762;2023-07-22T02:53:46;100323.97;;;20.80;85.31
76460;BME280;65299;46.084;18.762;2023-07-22T02:56:47;100327.56;;;20.63;86.59
76460;BME280;65299;46.084;18.762;2023-07-22T02:59:47;100330.09;;;20.68;86.50
76460;BME280;65299;46.084;18.762;2023-07-22T03:02:48;100337.59;;;20.62;86.77
76460;BME280;65299;46.084;18.762;2023-07-22T03:05:48;100345.13;;;20.48;86.80
76460;BME280;65299;46.084;18.762;2023-07-22T03:08:48;100343.63;;;20.30;87.33
76460;BME280;65299;46.084;18.762;2023-07-22T03:11:49;100356.06;;;20.23;87.95
76460;BME280;65299;46.084;18.762;2023-07-22T03:14:49;100344.94;;;20.24;87.56
76460;BME280;65299;46.084;18.762;2023-07-22T03:17:50;100334.50;;;20.23;87.86
76460;BME280;65299;46.084;18.762;2023-07-22T03:20:50;100339.78;;;20.02;87.63
76460;BME280;65299;46.084;18.762;2023-07-22T03:23:52;100355.59;;;20.12;87.45
76460;BME280;65299;46.084;18.762;2023-07-22T03:26:52;100356.38;;;20.13;87.32
76460;BME280;65299;46.084;18.762;2023-07-22T03:29:53;100354.03;;;20.20;86.98
76460;BME280;65299;46.084;18.762;2023-07-22T03:32:53;100370.97;;;20.12;87.22
76460;BME280;65299;46.084;18.762;2023-07-22T03:35:54;100355.72;;;20.16;87.06
76460;BME280;65299;46.084;18.762;2023-07-22T03:38:58;100348.91;;;20.18;87.32
76460;BME280;65299;46.084;18.762;2023-07-22T03:41:58;100347.84;;;20.11;86.94
76460;BME280;65299;46.084;18.762;2023-07-22T03:44:59;100342.25;;;20.16;86.73
76460;BME280;65299;46.084;18.762;2023-07-22T03:48:00;100342.13;;;20.21;86.12
76460;BME280;65299;46.084;18.762;2023-07-22T03:51:00;100357.50;;;20.12;86.63
76460;BME280;65299;46.084;18.762;2023-07-22T03:54:01;100365.94;;;20.02;86.66
76460;BME280;65299;46.084;18.762;2023-07-22T03:57:01;100377.94;;;20.21;85.66
76460;BME280;65299;46.084;18.762;2023-07-22T04:00:02;100376.06;;;20.42;84.33
76460;BME280;65299;46.084;18.762;2023-07-22T04:03:04;100364.91;;;20.32;85.33
76460;BME280;65299;46.084;18.762;2023-07-22T04:06:04;100358.63;;;20.11;85.58
76460;BME280;65299;46.084;18.762;2023-07-22T04:09:04;100351.09;;;20.33;85.20
76460;BME280;65299;46.084;18.762;2023-07-22T04:12:05;100361.38;;;20.40;85.87
76460;BME280;65299;46.084;18.762;2023-07-22T04:15:06;100363.34;;;20.51;85.48
76460;BME280;65299;46.084;18.762;2023-07-22T04:18:07;100378.09;;;20.54;84.85
76460;BME280;65299;46.084;18.762;2023-07-22T04:21:07;100388.53;;;20.55;84.40
76460;BME280;65299;46.084;18.762;2023-07-22T04:24:08;100398.88;;;20.53;84.63
76460;BME280;65299;46.084;18.762;2023-07-22T04:27:08;100399.28;;;20.35;84.96
76460;BME280;65299;46.084;18.762;2023-07-22T04:30:09;100410.50;;;20.45;84.44
76460;BME280;65299;46.084;18.762;2023-07-22T04:33:09;100421.44;;;20.40;84.45
76460;BME280;65299;46.084;18.762;2023-07-22T04:36:10;100439.56;;;20.40;85.02
76460;BME280;65299;46.084;18.762;2023-07-22T04:39:11;100437.06;;;20.26;84.95
76460;BME280;65299;46.084;18.762;2023-07-22T04:42:12;100431.81;;;20.30;85.71
76460;BME280;65299;46.084;18.762;2023-07-22T04:45:12;100449.97;;;20.50;84.71
76460;BME280;65299;46.084;18.762;2023-07-22T04:48:15;100456.75;;;20.56;83.96
76460;BME280;65299;46.084;18.762;2023-07-22T04:51:16;100460.22;;;20.56;83.68
76460;BME280;65299;46.084;18.762;2023-07-22T04:54:16;100466.97;;;20.42;84.42
76460;BME280;65299;46.084;18.762;2023-07-22T04:57:18;100483.75;;;20.47;84.25
76460;BME280;65299;46.084;18.762;2023-07-22T05:00:18;100493.31;;;20.74;83.20
76460;BME280;65299;46.084;18.762;2023-07-22T05:03:19;100489.69;;;20.70;83.67
76460;BME280;65299;46.084;18.762;2023-07-22T05:06:19;100481.22;;;20.80;83.09
76460;BME280;65299;46.084;18.762;2023-07-22T05:09:20;100475.88;;;21.01;83.02
76460;BME280;65299;46.084;18.762;2023-07-22T05:12:20;100470.66;;;20.96;83.28
76460;BME280;65299;46.084;18.762;2023-07-22T05:15:21;100462.53;;;21.04;82.33
76460;BME280;65299;46.084;18.762;2023-07-22T05:18:21;100457.59;;;21.06;82.56
76460;BME280;65299;46.084;18.762;2023-07-22T05:21:22;100458.59;;;21.22;82.35
76460;BME280;65299;46.084;18.762;2023-07-22T05:24:22;100454.91;;;21.48;81.16
76460;BME280;65299;46.084;18.762;2023-07-22T05:27:24;100450.63;;;21.79;79.90
76460;BME280;65299;46.084;18.762;2023-07-22T05:30:24;100456.78;;;21.68;80.37
76460;BME280;65299;46.084;18.762;2023-07-22T05:33:26;100468.25;;;21.85;79.42
76460;BME280;65299;46.084;18.762;2023-07-22T05:36:28;100474.50;;;21.77;79.76
76460;BME280;65299;46.084;18.762;2023-07-22T05:39:29;100476.06;;;21.99;79.73
76460;BME280;65299;46.084;18.762;2023-07-22T05:42:29;100471.69;;;22.06;78.41
76460;BME280;65299;46.084;18.762;2023-07-22T05:45:30;100471.91;;;22.13;78.64
76460;BME280;65299;46.084;18.762;2023-07-22T05:48:30;100478.66;;;22.07;78.48
76460;BME280;65299;46.084;18.762;2023-07-22T05:51:30;100485.97;;;22.52;77.57
76460;BME280;65299;46.084;18.762;2023-07-22T05:54:31;100487.19;;;22.54;76.25
76460;BME280;65299;46.084;18.762;2023-07-22T05:57:31;100492.38;;;22.47;76.60
76460;BME280;65299;46.084;18.762;2023-07-22T06:00:33;100503.84;;;22.44;75.99
76460;BME280;65299;46.084;18.762;2023-07-22T06:03:33;100501.50;;;22.43;76.46
76460;BME280;65299;46.084;18.762;2023-07-22T06:06:35;100505.94;;;22.59;75.87
76460;BME280;65299;46.084;18.762;2023-07-22T06:09:37;100515.63;;;22.60;75.77
76460;BME280;65299;46.084;18.762;2023-07-22T06:12:37;100516.53;;;22.19;75.89
76460;BME280;65299;46.084;18.762;2023-07-22T06:15:38;100518.13;;;22.20;77.13
76460;BME280;65299;46.084;18.762;2023-07-22T06:18:39;100523.22;;;22.34;76.42
76460;BME280;65299;46.084;18.762;2023-07-22T06:21:40;100521.69;;;22.45;75.77
76460;BME280;65299;46.084;18.762;2023-07-22T06:24:40;100525.75;;;22.51;75.25
76460;BME280;65299;46.084;18.762;2023-07-22T06:27:41;100529.59;;;22.74;74.65
76460;BME280;65299;46.084;18.762;2023-07-22T06:30:41;100540.56;;;23.02;74.04
76460;BME280;65299;46.084;18.762;2023-07-22T06:33:42;100532.31;;;22.74;73.06
76460;BME280;65299;46.084;18.762;2023-07-22T06:36:42;100533.13;;;22.87;72.82
76460;BME280;65299;46.084;18.762;2023-07-22T06:39:42;100537.72;;;23.23;72.87
76460;BME280;65299;46.084;18.762;2023-07-22T06:42:43;100542.44;;;23.50;71.90
76460;BME280;65299;46.084;18.762;2023-07-22T06:45:44;100546.47;;;23.68;67.17
76460;BME280;65299;46.084;18.762;2023-07-22T06:48:44;100540.84;;;23.88;66.16
76460;BME280;65299;46.084;18.762;2023-07-22T06:51:44;100548.91;;;24.01;66.31
76460;BME280;65299;46.084;18.762;2023-07-22T06:54:45;100550.69;;;23.81;65.30
76460;BME280;65299;46.084;18.762;2023-07-22T06:57:48;100544.47;;;23.80;63.96
76460;BME280;65299;46.084;18.762;2023-07-22T07:00:53;100547.75;;;23.86;65.01
76460;BME280;65299;46.084;18.762;2023-07-22T07:03:53;100546.78;;;24.06;64.54
76460;BME280;65299;46.084;18.762;2023-07-22T07:06:54;100551.31;;;24.02;64.01
76460;BME280;65299;46.084;18.762;2023-07-22T07:09:54;100555.38;;;24.08;63.54
76460;BME280;65299;46.084;18.762;2023-07-22T07:12:55;100554.16;;;24.21;63.83
76460;BME280;65299;46.084;18.762;2023-07-22T07:15:55;100548.88;;;24.40;62.52
76460;BME280;65299;46.084;18.762;2023-07-22T07:18:55;100554.38;;;24.28;62.22
76460;BME280;65299;46.084;18.762;2023-07-22T07:21:56;100551.50;;;24.09;61.58
76460;BME280;65299;46.084;18.762;2023-07-22T07:24:56;100559.00;;;24.00;63.09
76460;BME280;65299;46.084;18.762;2023-07-22T07:27:57;100564.75;;;24.11;63.80
76460;BME280;65299;46.084;18.762;2023-07-22T07:30:57;100567.06;;;24.40;59.08
76460;BME280;65299;46.084;18.762;2023-07-22T07:33:58;100568.78;;;24.76;60.17
76460;BME280;65299;46.084;18.762;2023-07-22T07:36:58;100573.94;;;24.65;60.54
76460;BME280;65299;46.084;18.762;2023-07-22T07:39:59;100584.91;;;25.00;57.49
76460;BME280;65299;46.084;18.762;2023-07-22T07:43:02;100584.88;;;25.15;56.59
76460;BME280;65299;46.084;18.762;2023-07-22T07:46:31;100589.78;;;25.10;56.73
76460;BME280;65299;46.084;18.762;2023-07-22T07:49:31;100588.63;;;25.42;57.48
76460;BME280;65299;46.084;18.762;2023-07-22T07:52:32;100606.78;;;25.07;57.89
76460;BME280;65299;46.084;18.762;2023-07-22T07:55:32;100612.03;;;25.15;59.05
76460;BME280;65299;46.084;18.762;2023-07-22T07:58:33;100601.19;;;25.00;58.04
76460;BME280;65299;46.084;18.762;2023-07-22T08:01:33;100600.31;;;24.80;57.36
76460;BME280;65299;46.084;18.762;2023-07-22T08:04:33;100601.00;;;24.93;58.49
76460;BME280;65299;46.084;18.762;2023-07-22T08:07:34;100603.53;;;25.32;56.96
76460;BME280;65299;46.084;18.762;2023-07-22T08:10:35;100605.63;;;25.39;58.46
76460;BME280;65299;46.084;18.762;2023-07-22T08:13:36;100610.28;;;25.23;58.56
76460;BME280;65299;46.084;18.762;2023-07-22T08:16:37;100625.09;;;25.25;57.01
76460;BME280;65299;46.084;18.762;2023-07-22T08:19:37;100616.50;;;25.39;56.75
76460;BME280;65299;46.084;18.762;2023-07-22T08:22:38;100621.69;;;25.44;54.88
76460;BME280;65299;46.084;18.762;2023-07-22T08:25:39;100625.06;;;25.57;55.52
76460;BME280;65299;46.084;18.762;2023-07-22T08:28:39;100615.31;;;25.56;55.41
76460;BME280;65299;46.084;18.762;2023-07-22T08:31:40;100618.59;;;25.30;54.22
76460;BME280;65299;46.084;18.762;2023-07-22T08:34:40;100611.78;;;25.20;55.19
76460;BME280;65299;46.084;18.762;2023-07-22T08:37:43;100625.97;;;25.14;57.29
76460;BME280;65299;46.084;18.762;2023-07-22T08:40:43;100620.69;;;25.52;58.08
76460;BME280;65299;46.084;18.762;2023-07-22T08:43:45;100623.50;;;25.40;56.51
76460;BME280;65299;46.084;18.762;2023-07-22T08:46:49;100619.94;;;25.71;55.98
76460;BME280;65299;46.084;18.762;2023-07-22T08:49:53;100614.88;;;25.69;54.96
76460;BME280;65299;46.084;18.762;2023-07-22T08:52:58;100604.84;;;25.73;54.30
76460;BME280;65299;46.084;18.762;2023-07-22T08:56:01;100611.81;;;25.90;52.53
76460;BME280;65299;46.084;18.762;2023-07-22T08:59:01;100613.47;;;26.13;53.63
76460;BME280;65299;46.084;18.762;2023-07-22T09:02:05;100611.31;;;26.03;52.75
76460;BME280;65299;46.084;18.762;2023-07-22T09:05:09;100620.09;;;25.97;53.79
76460;BME280;65299;46.084;18.762;2023-07-22T09:08:12;100624.22;;;25.72;52.95
76460;BME280;65299;46.084;18.762;2023-07-22T09:11:14;100633.16;;;26.26;52.82
76460;BME280;65299;46.084;18.762;2023-07-22T09:14:18;100628.06;;;26.05;51.39
76460;BME280;65299;46.084;18.762;2023-07-22T09:17:19;100631.41;;;26.37;52.08
76460;BME280;65299;46.084;18.762;2023-07-22T09:20:20;100626.72;;;26.15;51.43
76460;BME280;65299;46.084;18.762;2023-07-22T09:23:35;100637.16;;;26.13;50.68
76460;BME280;65299;46.084;18.762;2023-07-22T09:26:35;100626.06;;;26.41;51.27
76460;BME280;65299;46.084;18.762;2023-07-22T09:29:38;100634.91;;;26.57;51.58
76460;BME280;65299;46.084;18.762;2023-07-22T09:32:42;100634.06;;;26.53;50.75
76460;BME280;65299;46.084;18.762;2023-07-22T09:35:47;100637.63;;;26.76;50.74
76460;BME280;65299;46.084;18.762;2023-07-22T09:38:59;100631.22;;;26.68;49.48
76460;BME280;65299;46.084;18.762;2023-07-22T09:42:00;100627.09;;;26.97;48.12
76460;BME280;65299;46.084;18.762;2023-07-22T09:45:03;100629.22;;;26.84;47.78
76460;BME280;65299;46.084;18.762;2023-07-22T09:48:04;100621.34;;;26.79;46.78
76460;BME280;65299;46.084;18.762;2023-07-22T09:51:05;100621.03;;;27.07;47.63
76460;BME280;65299;46.084;18.762;2023-07-22T09:54:07;100617.78;;;26.75;47.49
76460;BME280;65299;46.084;18.762;2023-07-22T09:57:07;100621.50;;;26.90;46.69
76460;BME280;65299;46.084;18.762;2023-07-22T10:00:08;100612.72;;;27.00;46.96
76460;BME280;65299;46.084;18.762;2023-07-22T10:03:10;100613.50;;;27.23;46.74
76460;BME280;65299;46.084;18.762;2023-07-22T10:06:11;100618.56;;;27.25;46.16
76460;BME280;65299;46.084;18.762;2023-07-22T10:09:14;100614.44;;;27.08;46.52
76460;BME280;65299;46.084;18.762;2023-07-22T10:12:16;100615.84;;;27.25;47.08
76460;BME280;65299;46.084;18.762;2023-07-22T10:15:16;100618.56;;;27.47;47.38
76460;BME280;65299;46.084;18.762;2023-07-22T10:18:21;100621.97;;;27.67;45.67
76460;BME280;65299;46.084;18.762;2023-07-22T10:21:22;100613.09;;;27.47;45.54
76460;BME280;65299;46.084;18.762;2023-07-22T10:24:23;100612.22;;;27.17;47.11
76460;BME280;65299;46.084;18.762;2023-07-22T10:27:24;100607.78;;;27.32;46.05
76460;BME280;65299;46.084;18.762;2023-07-22T10:30:26;100616.13;;;27.68;45.44
76460;BME280;65299;46.084;18.762;2023-07-22T10:33:26;100609.19;;;27.74;45.60
76460;BME280;65299;46.084;18.762;2023-07-22T10:36:30;100609.03;;;27.64;45.43
76460;BME280;65299;46.084;18.762;2023-07-22T10:39:31;100595.91;;;27.99;43.91
76460;BME280;65299;46.084;18.762;2023-07-22T10:42:34;100597.94;;;28.06;44.23
76460;BME280;65299;46.084;18.762;2023-07-22T10:45:48;100592.06;;;27.48;43.47
76460;BME280;65299;46.084;18.762;2023-07-22T10:48:49;100591.13;;;27.63;43.47
76460;BME280;65299;46.084;18.762;2023-07-22T10:51:51;100595.53;;;27.71;44.02
76460;BME280;65299;46.084;18.762;2023-07-22T10:54:52;100588.16;;;28.05;42.70
76460;BME280;65299;46.084;18.762;2023-07-22T10:58:04;100580.50;;;27.87;44.17
76460;BME280;65299;46.084;18.762;2023-07-22T11:04:30;100577.28;;;28.08;41.64
76460;BME280;65299;46.084;18.762;2023-07-22T11:07:42;100580.47;;;28.14;41.57
76460;BME280;65299;46.084;18.762;2023-07-22T11:10:54;100577.22;;;28.05;43.14
76460;BME280;65299;46.084;18.762;2023-07-22T11:14:21;100575.69;;;28.04;41.08
76460;BME280;65299;46.084;18.762;2023-07-22T11:17:29;100582.00;;;27.52;41.86
76460;BME280;65299;46.084;18.762;2023-07-22T11:20:33;100589.00;;;27.79;42.92
76460;BME280;65299;46.084;18.762;2023-07-22T11:23:34;100574.22;;;27.83;41.72
76460;BME280;65299;46.084;18.762;2023-07-22T11:26:35;100591.47;;;28.24;41.66
76460;BME280;65299;46.084;18.762;2023-07-22T11:29:36;100582.06;;;28.18;40.26
76460;BME280;65299;46.084;18.762;2023-07-22T11:32:42;100574.88;;;27.73;39.97
76460;BME280;65299;46.084;18.762;2023-07-22T11:35:42;100580.22;;;28.26;40.10
76460;BME280;65299;46.084;18.762;2023-07-22T11:38:43;100573.69;;;28.37;40.23
76460;BME280;65299;46.084;18.762;2023-07-22T11:41:44;100582.03;;;28.55;41.48
76460;BME280;65299;46.084;18.762;2023-07-22T11:44:45;100579.47;;;28.69;40.62
76460;BME280;65299;46.084;18.762;2023-07-22T11:47:46;100576.72;;;28.69;39.50
76460;BME280;65299;46.084;18.762;2023-07-22T11:50:46;100574.16;;;28.87;38.34
76460;BME280;65299;46.084;18.762;2023-07-22T11:53:48;100583.78;;;28.70;38.96
76460;BME280;65299;46.084;18.762;2023-07-22T11:56:49;100590.53;;;28.83;38.71
76460;BME280;65299;46.084;18.762;2023-07-22T11:59:52;100593.13;;;28.69;38.06
76460;BME280;65299;46.084;18.762;2023-07-22T12:02:53;100587.47;;;28.51;36.79
76460;BME280;65299;46.084;18.762;2023-07-22T12:06:00;100579.47;;;28.69;39.51
76460;BME280;65299;46.084;18.762;2023-07-22T12:09:01;100582.41;;;28.50;37.44
76460;BME280;65299;46.084;18.762;2023-07-22T12:12:02;100578.50;;;28.51;36.51
76460;BME280;65299;46.084;18.762;2023-07-22T12:15:16;100574.66;;;28.55;37.28
76460;BME280;65299;46.084;18.762;2023-07-22T12:18:17;100575.31;;;28.86;37.39
76460;BME280;65299;46.084;18.762;2023-07-22T12:21:17;100565.75;;;29.13;37.37
76460;BME280;65299;46.084;18.762;2023-07-22T12:24:18;100566.41;;;28.96;36.34
76460;BME280;65299;46.084;18.762;2023-07-22T12:27:18;100562.13;;;28.98;38.14
76460;BME280;65299;46.084;18.762;2023-07-22T12:30:19;100564.25;;;29.15;36.66
76460;BME280;65299;46.084;18.762;2023-07-22T12:33:20;100556.97;;;28.83;36.33
76460;BME280;65299;46.084;18.762;2023-07-22T12:36:20;100554.53;;;29.25;38.12
76460;BME280;65299;46.084;18.762;2023-07-22T12:39:20;100564.41;;;29.43;38.72
76460;BME280;65299;46.084;18.762;2023-07-22T12:42:21;100555.56;;;29.10;36.97
76460;BME280;65299;46.084;18.762;2023-07-22T12:45:21;100545.91;;;29.19;37.39
76460;BME280;65299;46.084;18.762;2023-07-22T12:48:22;100525.38;;;29.54;35.75
76460;BME280;65299;46.084;18.762;2023-07-22T12:51:24;100526.47;;;29.38;35.61
76460;BME280;65299;46.084;18.762;2023-07-22T12:54:25;100524.06;;;29.26;36.52
76460;BME280;65299;46.084;18.762;2023-07-22T12:57:25;100523.72;;;29.35;36.15
76460;BME280;65299;46.084;18.762;2023-07-22T13:00:26;100531.41;;;29.91;36.24
76460;BME280;65299;46.084;18.762;2023-07-22T13:03:26;100528.28;;;29.13;37.03
76460;BME280;65299;46.084;18.762;2023-07-22T13:06:26;100502.25;;;29.37;36.48
76460;BME280;65299;46.084;18.762;2023-07-22T13:09:27;100523.03;;;29.56;35.93
76460;BME280;65299;46.084;18.762;2023-07-22T13:12:27;100521.47;;;29.55;36.13
76460;BME280;65299;46.084;18.762;2023-07-22T13:15:28;100526.41;;;29.24;36.47
76460;BME280;65299;46.084;18.762;2023-07-22T13:18:28;100524.72;;;29.78;35.49
76460;BME280;65299;46.084;18.762;2023-07-22T13:21:29;100526.31;;;29.86;36.26
76460;BME280;65299;46.084;18.762;2023-07-22T13:24:30;100519.06;;;29.35;35.79
76460;BME280;65299;46.084;18.762;2023-07-22T13:27:30;100524.00;;;28.65;37.05
76460;BME280;65299;46.084;18.762;2023-07-22T13:30:31;100521.91;;;28.95;37.13
76460;BME280;65299;46.084;18.762;2023-07-22T13:33:31;100510.41;;;29.26;37.25
76460;BME280;65299;46.084;18.762;2023-07-22T13:36:32;100510.72;;;28.60;38.73
76460;BME280;65299;46.084;18.762;2023-07-22T13:39:32;100506.31;;;28.48;38.33
76460;BME280;65299;46.084;18.762;2023-07-22T13:42:33;100505.16;;;29.04;38.01
76460;BME280;65299;46.084;18.762;2023-07-22T13:45:37;100498.63;;;29.15;37.89
76460;BME280;65299;46.084;18.762;2023-07-22T13:48:37;100494.50;;;29.57;37.54
76460;BME280;65299;46.084;18.762;2023-07-22T13:51:38;100492.09;;;29.37;36.83
76460;BME280;65299;46.084;18.762;2023-07-22T13:54:38;100493.50;;;30.03;35.55
76460;BME280;65299;46.084;18.762;2023-07-22T13:57:39;100479.34;;;29.73;36.29
76460;BME280;65299;46.084;18.762;2023-07-22T14:00:39;100477.09;;;30.24;34.79
76460;BME280;65299;46.084;18.762;2023-07-22T14:03:40;100465.41;;;30.35;34.31
76460;BME280;65299;46.084;18.762;2023-07-22T14:06:40;100465.38;;;30.17;35.07
76460;BME280;65299;46.084;18.762;2023-07-22T14:09:40;100463.38;;;29.79;35.72
76460;BME280;65299;46.084;18.762;2023-07-22T14:12:41;100455.91;;;29.79;36.36
76460;BME280;65299;46.084;18.762;2023-07-22T14:15:41;100451.88;;;29.45;36.29
76460;BME280;65299;46.084;18.762;2023-07-22T14:18:42;100458.34;;;29.05;35.83
76460;BME280;65299;46.084;18.762;2023-07-22T14:21:42;100439.50;;;28.90;37.96
76460;BME280;65299;46.084;18.762;2023-07-22T14:24:43;100434.34;;;29.67;37.50
76460;BME280;65299;46.084;18.762;2023-07-22T14:27:43;100433.16;;;29.54;35.22
76460;BME280;65299;46.084;18.762;2023-07-22T14:30:44;100439.94;;;30.16;35.71
76460;BME280;65299;46.084;18.762;2023-07-22T14:33:44;100438.38;;;30.40;34.81
76460;BME280;65299;46.084;18.762;2023-07-22T14:36:44;100437.16;;;29.95;35.33
76460;BME280;65299;46.084;18.762;2023-07-22T14:39:45;100441.41;;;29.68;35.83
76460;BME280;65299;46.084;18.762;2023-07-22T14:42:46;100443.53;;;29.13;37.99
76460;BME280;65299;46.084;18.762;2023-07-22T14:45:47;100440.47;;;31.51;34.65
76460;BME280;65299;46.084;18.762;2023-07-22T14:48:47;100436.28;;;32.49;31.68
76460;BME280;65299;46.084;18.762;2023-07-22T14:51:47;100435.06;;;34.35;29.71
76460;BME280;65299;46.084;18.762;2023-07-22T14:54:49;100431.50;;;33.84;28.57
76460;BME280;65299;46.084;18.762;2023-07-22T14:57:49;100428.00;;;33.57;28.45
76460;BME280;65299;46.084;18.762;2023-07-22T15:00:51;100437.66;;;33.08;29.76
76460;BME280;65299;46.084;18.762;2023-07-22T15:03:52;100422.97;;;34.29;29.01
76460;BME280;65299;46.084;18.762;2023-07-22T15:06:52;100428.81;;;32.87;30.41
76460;BME280;65299;46.084;18.762;2023-07-22T15:09:53;100434.09;;;33.08;29.70
76460;BME280;65299;46.084;18.762;2023-07-22T15:12:54;100433.19;;;33.48;30.69
76460;BME280;65299;46.084;18.762;2023-07-22T15:15:54;100437.13;;;31.87;32.20
76460;BME280;65299;46.084;18.762;2023-07-22T15:18:58;100439.97;;;31.66;32.40
76460;BME280;65299;46.084;18.762;2023-07-22T15:21:58;100440.63;;;31.08;33.13
76460;BME280;65299;46.084;18.762;2023-07-22T15:24:59;100444.09;;;31.20;33.82
76460;BME280;65299;46.084;18.762;2023-07-22T15:27:59;100441.03;;;31.03;33.04
76460;BME280;65299;46.084;18.762;2023-07-22T15:31:00;100424.31;;;30.38;33.64
76460;BME280;65299;46.084;18.762;2023-07-22T15:34:00;100420.44;;;31.57;33.23
76460;BME280;65299;46.084;18.762;2023-07-22T15:37:01;100424.44;;;31.46;32.71
76460;BME280;65299;46.084;18.762;2023-07-22T15:40:01;100405.84;;;30.77;33.79